Time;durP1;ratioP1;P1;durP2;ratioP2;P2;SDS_P1;SDS_P2;PMS_P1;PMS_P2;Temp;Humidity;BMP_temperature;BMP_pressure;BME280_temperature;BME280_humidity;BME280_pressure;Samples;Min_cycle;Max_cycle;Signal;HPM_P1;HPM_P2
2022/03/23 00:05:59;;;;;;;74.20;38.40;;;;;;;2.25;50.18;101171.85;430837;1270;354839;-59
2022/03/23 00:16:06;;;;;;;65.10;36.90;;;;;;;1.90;50.77;101162.65;430849;1270;142309;-61
2022/03/23 00:26:14;;;;;;;64.50;37.30;;;;;;;1.52;51.17;101161.86;431033;1269;141957;-60
2022/03/23 00:36:20;;;;;;;;;;;;;;;1.23;51.99;101158.26;430176;1270;198377;-59
2022/03/23 00:46:26;;;;;;;59.80;32.70;;;;;;;0.96;52.38;101151.52;431544;1270;127236;-59
2022/03/23 00:56:32;;;;;;;48.50;31.00;;;;;;;0.74;52.98;101139.59;431893;1270;143350;-59
2022/03/23 01:06:39;;;;;;;49.80;31.30;;;;;;;0.63;53.63;101142.85;430542;1270;141427;-59
2022/03/23 01:16:45;;;;;;;57.00;37.40;;;;;;;0.66;54.16;101141.83;432007;1269;142016;-57
2022/03/23 01:26:51;;;;;;;69.20;39.60;;;;;;;0.38;54.26;101145.38;430754;1269;141010;-59
2022/03/23 01:36:57;;;;;;;64.80;36.80;;;;;;;0.10;54.70;101143.89;431235;1269;141791;-59
2022/03/23 01:47:09;;;;;;;58.00;34.30;;;;;;;-0.10;55.16;101152.42;430530;1270;141455;-59
2022/03/23 01:57:17;;;;;;;49.90;32.60;;;;;;;-0.29;55.72;101143.19;431195;1269;142377;-60
2022/03/23 02:07:24;;;;;;;52.30;32.40;;;;;;;-0.37;56.14;101132.29;431313;1270;141563;-59
2022/03/23 02:17:29;;;;;;;49.10;29.60;;;;;;;-0.54;56.43;101128.07;431843;1269;141455;-60
2022/03/23 02:27:37;;;;;;;50.10;31.90;;;;;;;-0.71;57.09;101128.11;430214;1270;144462;-59
2022/03/23 02:37:43;;;;;;;49.10;30.20;;;;;;;-0.92;57.21;101127.79;432385;1270;141798;-58
2022/03/23 02:47:49;;;;;;;58.50;34.10;;;;;;;-1.17;57.55;101128.45;433335;1270;141648;-58
2022/03/23 03:18:43;;;;;;;52.80;32.90;;;;;;;-1.69;58.90;101121.55;430347;1269;141559;-60
2022/03/23 03:28:50;;;;;;;51.00;33.50;;;;;;;-1.77;59.08;101116.50;430564;1270;142836;-60
2022/03/23 03:38:56;;;;;;;52.00;32.50;;;;;;;-1.73;60.16;101107.42;433125;1269;142234;-58
2022/03/23 03:49:02;;;;;;;55.70;33.80;;;;;;;-1.68;60.13;101110.40;432002;1270;142961;-59
2022/03/23 03:59:08;;;;;;;62.00;36.80;;;;;;;-1.66;60.26;101108.88;431493;1270;142842;-59
2022/03/23 04:09:14;;;;;;;58.20;34.30;;;;;;;-1.70;60.19;101110.04;433227;1270;142188;-59
2022/03/23 04:19:20;;;;;;;55.20;34.70;;;;;;;-1.90;60.34;101108.61;430201;1270;141075;-59
2022/03/23 04:29:26;;;;;;;74.00;38.10;;;;;;;-2.11;60.50;101118.32;432049;1270;141266;-58
2022/03/23 04:39:33;;;;;;;63.00;33.20;;;;;;;-2.25;60.85;101116.92;432695;1268;142322;-60
2022/03/23 04:49:38;;;;;;;56.80;36.00;;;;;;;-2.30;61.22;101111.38;431729;1270;141386;-59
2022/03/23 04:59:44;;;;;;;67.90;39.20;;;;;;;-2.21;61.61;101112.02;432025;1270;143140;-59
2022/03/23 05:09:50;;;;;;;57.10;37.10;;;;;;;-1.91;62.18;101109.96;431314;1270;141958;-63
2022/03/23 05:19:56;;;;;;;62.10;36.60;;;;;;;-1.19;62.25;101104.86;431780;1270;141727;-60
2022/03/23 05:30:02;;;;;;;66.80;38.00;;;;;;;-0.68;61.01;101102.33;431010;1270;143902;-58
2022/03/23 05:40:10;;;;;;;53.90;34.20;;;;;;;1.36;60.79;101096.79;431283;1270;142691;-59
2022/03/23 05:50:16;;;;;;;47.90;32.60;;;;;;;7.90;54.78;101076.92;432275;1270;141204;-59
2022/03/23 06:00:22;;;;;;;46.20;32.80;;;;;;;14.88;45.99;101063.23;431174;1270;144184;-61
2022/03/23 06:10:29;;;;;;;46.30;34.00;;;;;;;19.78;38.56;101054.61;431758;1269;142470;-57
2022/03/23 06:20:35;;;;;;;53.00;36.60;;;;;;;23.81;32.96;101052.41;432420;1270;142158;-56
2022/03/23 06:30:41;;;;;;;50.30;37.50;;;;;;;27.56;28.55;101037.45;431992;1270;142325;-59
2022/03/23 06:40:47;;;;;;;35.00;29.20;;;;;;;30.44;24.97;101036.52;431772;1270;142275;-59
2022/03/23 06:50:51;;;;;;;;;;;;;;;32.53;22.14;101031.23;433980;1269;141547;-59
2022/03/23 07:00:59;;;;;;;31.00;25.80;;;;;;;34.75;19.93;101027.90;431512;1270;129043;-59
2022/03/23 07:11:06;;;;;;;29.10;24.30;;;;;;;36.70;17.83;101026.40;431482;1270;181280;-60
2022/03/23 07:21:12;;;;;;;24.80;22.20;;;;;;;38.04;16.45;101024.12;433080;1268;141261;-62
2022/03/23 07:31:18;;;;;;;28.40;23.70;;;;;;;39.47;15.30;101017.23;431581;1271;142182;-56
2022/03/23 07:41:25;;;;;;;30.00;23.80;;;;;;;41.39;13.95;101011.52;432924;1270;145951;-59
2022/03/23 07:51:31;;;;;;;30.30;24.90;;;;;;;41.55;13.21;101012.90;431449;1270;141962;-59
2022/03/23 08:01:37;;;;;;;27.90;25.00;;;;;;;42.52;12.51;100999.13;432389;1270;141710;-59
2022/03/23 08:11:43;;;;;;;27.00;24.20;;;;;;;43.34;11.98;100991.52;431814;1270;142481;-59
2022/03/23 08:21:49;;;;;;;27.80;24.40;;;;;;;44.05;11.48;100981.96;432797;1270;142002;-60
2022/03/23 08:31:55;;;;;;;22.50;18.90;;;;;;;44.72;10.88;100979.40;433303;1270;142062;-59
2022/03/23 08:42:01;;;;;;;22.40;19.10;;;;;;;45.70;10.40;100976.34;431865;1270;141739;-59
2022/03/23 08:52:07;;;;;;;19.90;16.40;;;;;;;47.32;9.96;100974.02;430919;1270;143329;-61
2022/03/23 09:02:14;;;;;;;19.90;17.90;;;;;;;45.23;9.86;100964.54;433341;1270;145854;-60
2022/03/23 09:12:21;;;;;;;21.90;19.40;;;;;;;35.99;11.47;100952.20;431482;1270;141489;-59
2022/03/23 09:22:27;;;;;;;24.40;17.60;;;;;;;29.82;13.79;100953.83;433899;1269;142263;-60
2022/03/23 09:32:33;;;;;;;21.70;19.40;;;;;;;26.69;15.29;100945.91;432246;1270;141130;-60
2022/03/23 09:42:40;;;;;;;18.20;14.50;;;;;;;24.47;16.61;100936.85;432545;1270;142091;-61
2022/03/23 09:52:46;;;;;;;16.90;13.90;;;;;;;22.91;17.68;100922.00;432720;1270;140975;-65
2022/03/23 10:03:54;;;;;;;22.30;14.40;;;;;;;21.87;18.63;100914.77;432607;1270;142502;-61
2022/03/23 10:14:56;;;;;;;15.40;11.40;;;;;;;21.08;19.14;100902.34;430965;1270;141199;-59
2022/03/23 10:25:10;;;;;;;17.00;12.20;;;;;;;20.22;19.71;100885.63;430830;1270;146717;-58
2022/03/23 10:35:17;;;;;;;16.50;13.10;;;;;;;19.67;20.51;100868.96;431331;1270;141957;-58
2022/03/23 10:45:24;;;;;;;16.60;12.80;;;;;;;19.04;20.47;100862.76;431624;1271;142224;-60
2022/03/23 10:55:32;;;;;;;14.70;11.80;;;;;;;18.62;21.10;100853.08;432298;1270;142138;-62
2022/03/23 11:05:39;;;;;;;33.90;13.30;;;;;;;18.59;20.57;100840.55;432139;1271;142131;-65
2022/03/23 11:15:49;;;;;;;12.00;9.60;;;;;;;18.58;20.32;100824.54;431373;1271;143351;-61
2022/03/23 11:25:57;;;;;;;12.30;9.40;;;;;;;18.35;18.68;100806.27;432009;1269;141705;-60
2022/03/23 11:36:09;;;;;;;13.40;8.30;;;;;;;18.17;18.40;100795.96;433030;1270;142298;-58
2022/03/23 11:46:20;;;;;;;19.90;10.80;;;;;;;18.30;18.15;100777.23;432295;1270;142994;-60
2022/03/23 11:56:29;;;;;;;15.60;12.40;;;;;;;18.45;18.87;100761.20;432577;1271;142357;-58
2022/03/23 12:06:44;;;;;;;16.70;10.80;;;;;;;18.51;19.24;100754.89;431373;1271;365258;-60
2022/03/23 12:17:11;;;;;;;17.30;7.60;;;;;;;18.41;18.81;100739.69;432801;1270;141707;-61
2022/03/23 12:27:36;;;;;;;9.10;5.30;;;;;;;18.27;16.52;100728.54;430405;1271;141606;-61
2022/03/23 12:37:44;;;;;;;12.90;5.90;;;;;;;18.22;16.29;100718.16;434745;1270;141051;-58
2022/03/23 12:47:56;;;;;;;10.40;6.60;;;;;;;18.34;16.01;100702.78;432335;1270;141449;-64
2022/03/23 12:58:11;;;;;;;11.60;5.30;;;;;;;18.31;15.96;100692.61;430580;1270;141719;-69
2022/03/23 13:08:47;;;;;;;18.00;5.20;;;;;;;18.25;14.74;100679.06;431939;1269;143000;-59
2022/03/23 13:18:58;;;;;;;7.50;3.70;;;;;;;18.11;14.28;100669.03;430686;1270;142198;-58
2022/03/23 13:29:07;;;;;;;11.00;6.40;;;;;;;18.00;14.73;100662.88;433412;1270;141301;-63
2022/03/23 13:39:14;;;;;;;10.10;5.70;;;;;;;17.95;15.06;100654.41;431671;1268;145452;-67
2022/03/23 13:49:20;;;;;;;6.70;4.90;;;;;;;17.91;15.41;100641.33;430874;1270;141467;-60
2022/03/23 13:59:26;;;;;;;12.80;4.50;;;;;;;17.93;15.48;100629.05;432460;1270;140804;-59
2022/03/23 14:09:32;;;;;;;5.40;4.20;;;;;;;18.08;14.91;100614.84;432765;1270;141398;-57
2022/03/23 14:19:41;;;;;;;14.10;4.80;;;;;;;17.98;15.07;100607.81;431650;1270;142198;-57
2022/03/23 14:30:08;;;;;;;7.70;5.20;;;;;;;17.96;14.97;100596.43;434670;1269;143507;-59
2022/03/23 14:40:27;;;;;;;11.40;6.10;;;;;;;17.87;15.16;100583.20;432026;1270;145693;-71
2022/03/23 14:50:33;;;;;;;9.80;6.00;;;;;;;17.80;15.48;100572.31;432115;1270;141890;-60
2022/03/23 15:00:39;;;;;;;10.40;7.20;;;;;;;17.76;15.98;100560.95;432017;1270;141315;-60
2022/03/23 15:21:19;;;;;;;8.10;7.20;;;;;;;17.44;16.13;100541.88;431715;1270;140814;-69
2022/03/23 15:31:24;;;;;;;;;;;;;;;17.30;16.20;100538.54;432971;1270;140717;-66
2022/03/23 15:41:31;;;;;;;11.40;7.20;;;;;;;17.02;16.63;100526.82;440977;1269;130426;-61
2022/03/23 15:51:37;;;;;;;9.80;7.30;;;;;;;16.77;16.52;100516.35;435020;1270;142488;-60
2022/03/23 16:01:45;;;;;;;13.20;8.00;;;;;;;16.42;16.90;100510.08;432394;1270;141621;-59
2022/03/23 16:11:53;;;;;;;16.20;7.60;;;;;;;16.19;17.06;100503.27;431923;1270;142210;-60
2022/03/23 16:21:59;;;;;;;10.80;7.40;;;;;;;15.85;17.48;100498.23;430659;1270;141238;-60
2022/03/23 16:32:06;;;;;;;13.30;6.40;;;;;;;15.57;17.54;100491.03;432335;1270;141972;-64
2022/03/23 16:42:13;;;;;;;12.70;8.10;;;;;;;15.10;17.86;100493.36;432724;1270;142103;-66
2022/03/23 16:52:19;;;;;;;27.10;10.10;;;;;;;14.49;18.62;100488.48;431134;1270;141995;-61
2022/03/23 17:02:25;;;;;;;27.10;11.00;;;;;;;13.84;19.34;100495.23;430964;1269;141273;-61
2022/03/23 17:12:31;;;;;;;13.40;9.30;;;;;;;13.38;20.25;100506.50;430112;1270;141326;-66
2022/03/23 17:22:39;;;;;;;11.70;8.90;;;;;;;13.25;20.90;100509.02;432298;1271;145675;-60
2022/03/23 17:32:46;;;;;;;19.50;9.90;;;;;;;12.86;21.52;100514.31;431767;1268;141870;-61
2022/03/23 17:42:52;;;;;;;24.20;9.70;;;;;;;12.31;22.50;100513.55;431172;1270;141506;-60
2022/03/23 17:53:08;;;;;;;20.80;10.40;;;;;;;11.69;23.51;100520.42;433646;1270;141975;-59
2022/03/23 18:03:14;;;;;;;24.10;11.10;;;;;;;11.16;24.81;100526.70;433266;1269;141695;-58
2022/03/23 18:13:21;;;;;;;25.80;11.30;;;;;;;10.66;25.77;100532.50;433128;1270;141693;-58
2022/03/23 18:23:27;;;;;;;40.40;13.20;;;;;;;10.19;26.55;100533.33;431875;1270;141339;-59
2022/03/23 18:33:33;;;;;;;25.70;11.40;;;;;;;9.78;27.25;100538.19;430797;1270;143445;-60
2022/03/23 18:43:42;;;;;;;32.30;13.50;;;;;;;9.41;28.11;100539.80;432580;1270;142002;-59
2022/03/23 18:53:49;;;;;;;46.50;13.70;;;;;;;9.04;29.28;100535.09;432678;1270;142711;-59
2022/03/23 19:03:54;;;;;;;41.50;17.00;;;;;;;8.66;30.48;100530.02;430869;1270;142322;-60
2022/03/23 19:14:00;;;;;;;36.70;16.30;;;;;;;8.29;31.31;100531.98;431876;1269;142759;-59
2022/03/23 19:24:07;;;;;;;54.00;18.40;;;;;;;7.91;32.19;100535.34;432104;1269;141950;-59
2022/03/23 19:34:13;;;;;;;45.00;15.40;;;;;;;7.51;33.29;100541.02;432083;1270;141443;-60
2022/03/23 19:44:19;;;;;;;47.90;17.60;;;;;;;7.10;34.29;100546.77;431127;1270;142477;-59
2022/03/23 19:54:27;;;;;;;53.60;23.70;;;;;;;6.72;34.69;100553.42;430233;1270;143284;-60
2022/03/23 20:04:33;;;;;;;;;;;;;;;7.30;34.32;100551.13;431738;1270;141755;-60
2022/03/23 20:14:39;;;;;;;28.30;19.30;;;;;;;8.38;33.16;100552.76;433831;1270;131697;-58
2022/03/23 20:24:45;;;;;;;27.80;20.20;;;;;;;9.13;31.87;100557.05;431355;1270;141996;-59
2022/03/23 20:34:51;;;;;;;24.30;18.40;;;;;;;9.32;31.57;100565.90;431669;1270;142203;-59
2022/03/23 20:44:58;;;;;;;31.10;19.30;;;;;;;9.26;31.15;100570.86;431247;1270;141987;-60
2022/03/23 20:55:08;;;;;;;27.70;19.20;;;;;;;9.09;31.09;100569.48;430914;1270;141638;-58
2022/03/23 21:05:14;;;;;;;25.80;17.20;;;;;;;8.96;31.11;100571.08;433429;1269;142073;-59
2022/03/23 21:15:20;;;;;;;25.90;18.30;;;;;;;8.74;31.39;100578.74;431526;1270;141605;-58
2022/03/23 21:25:26;;;;;;;28.30;16.90;;;;;;;8.53;31.56;100583.27;431593;1270;142810;-57
2022/03/23 21:35:33;;;;;;;23.40;16.50;;;;;;;8.39;31.76;100580.12;431452;1270;143688;-59
2022/03/23 21:45:39;;;;;;;23.10;15.20;;;;;;;8.19;31.81;100584.20;431507;1270;145846;-60
2022/03/23 21:55:44;;;;;;;26.90;18.40;;;;;;;7.92;32.00;100584.48;431272;1269;141661;-59
2022/03/23 22:05:50;;;;;;;25.30;17.80;;;;;;;7.72;32.26;100585.23;431482;1269;140960;-60
2022/03/23 22:15:56;;;;;;;22.50;16.20;;;;;;;7.53;32.46;100588.14;430555;1270;142695;-58
2022/03/23 22:26:03;;;;;;;26.20;17.70;;;;;;;7.29;32.87;100586.36;430801;1270;143099;-59
2022/03/23 22:36:09;;;;;;;23.30;15.90;;;;;;;7.05;33.25;100585.42;432044;1269;142668;-60
2022/03/23 22:46:16;;;;;;;19.70;16.00;;;;;;;6.85;33.67;100586.42;431577;1270;141993;-59
2022/03/23 22:56:22;;;;;;;;;;;;;;;6.72;34.10;100588.05;431759;1270;141960;-60
2022/03/23 23:06:28;;;;;;;21.20;15.50;;;;;;;6.55;34.77;100593.64;429867;1270;127311;-60
2022/03/23 23:16:34;;;;;;;21.00;14.50;;;;;;;6.32;35.40;100593.63;431808;1270;142683;-59
2022/03/23 23:26:40;;;;;;;23.20;15.80;;;;;;;6.11;35.57;100598.78;431200;1270;140891;-60
2022/03/23 23:36:47;;;;;;;27.30;15.80;;;;;;;6.02;36.40;100601.29;429951;1270;142171;-61
2022/03/23 23:46:53;;;;;;;21.60;15.30;;;;;;;5.86;37.30;100601.70;430551;1270;142742;-59
2022/03/23 23:56:59;;;;;;;24.40;17.20;;;;;;;5.72;38.02;100602.79;432066;1270;141766;-59
